createdAt,value
2023-10-22T00:00:34.410Z,12.20
2023-10-22T00:03:00.885Z,12.20
2023-10-22T00:05:27.337Z,12.21
2023-10-22T00:07:53.790Z,12.20
2023-10-22T00:10:20.160Z,12.22
2023-10-22T00:12:46.575Z,12.22
2023-10-22T00:15:13.864Z,12.23
2023-10-22T00:17:42.614Z,12.23
2023-10-22T00:20:10.153Z,12.25
2023-10-22T00:22:36.541Z,12.26
2023-10-22T00:25:06.372Z,12.28
2023-10-22T00:27:36.412Z,12.30
2023-10-22T00:30:03.040Z,12.30
2023-10-22T00:32:30.179Z,12.30
2023-10-22T00:34:57.109Z,12.31
2023-10-22T00:37:23.662Z,12.32
2023-10-22T00:39:50.294Z,12.34
2023-10-22T00:42:17.510Z,12.35
2023-10-22T00:44:43.996Z,12.36
2023-10-22T00:47:17.393Z,12.37
2023-10-22T00:49:48.354Z,12.39
2023-10-22T00:52:16.264Z,12.42
2023-10-22T00:54:43.786Z,12.41
2023-10-22T00:57:10.660Z,12.41
2023-10-22T00:59:37.599Z,12.44
2023-10-22T01:02:05.326Z,12.44
2023-10-22T01:04:37.141Z,12.45
2023-10-22T01:07:06.186Z,12.47
2023-10-22T01:09:32.613Z,12.48
2023-10-22T01:12:00.748Z,12.50
2023-10-22T01:14:31.101Z,12.50
2023-10-22T01:16:58.008Z,12.52
2023-10-22T01:19:25.032Z,12.52
2023-10-22T01:21:51.698Z,12.55
2023-10-22T01:24:18.154Z,12.55
2023-10-22T01:26:46.157Z,12.57
2023-10-22T01:29:12.700Z,12.57
2023-10-22T01:31:39.268Z,12.56
2023-10-22T01:34:05.831Z,12.55
2023-10-22T01:36:32.748Z,12.51
2023-10-22T01:38:59.424Z,12.51
2023-10-22T01:41:27.095Z,12.52
2023-10-22T01:43:54.798Z,12.50
2023-10-22T01:46:21.790Z,12.51
2023-10-22T01:48:48.473Z,12.50
2023-10-22T01:51:15.316Z,12.48
2023-10-22T01:53:43.220Z,12.46
2023-10-22T01:56:10.454Z,12.44
2023-10-22T01:58:37.028Z,12.42
2023-10-22T02:01:04.678Z,12.40
2023-10-22T02:03:34.183Z,12.37
2023-10-22T02:06:00.822Z,12.34
2023-10-22T02:08:27.315Z,12.30
2023-10-22T02:10:53.775Z,12.25
2023-10-22T02:13:21.318Z,12.21
2023-10-22T02:15:47.840Z,12.17
2023-10-22T02:18:14.429Z,12.13
2023-10-22T02:20:40.831Z,12.11
2023-10-22T02:23:08.737Z,12.10
2023-10-22T02:25:39.203Z,12.08
2023-10-22T02:28:06.078Z,12.07
2023-10-22T02:30:36.139Z,12.06
2023-10-22T02:33:03.408Z,12.05
2023-10-22T02:35:30.871Z,12.06
2023-10-22T02:37:57.248Z,12.04
2023-10-22T02:40:23.967Z,12.03
2023-10-22T02:42:50.327Z,12.02
2023-10-22T02:45:16.836Z,12.00
2023-10-22T02:47:43.279Z,12.00
2023-10-22T02:50:09.989Z,11.99
2023-10-22T02:52:36.357Z,12.00
2023-10-22T02:55:02.962Z,11.99
2023-10-22T02:57:29.323Z,11.98
2023-10-22T02:59:55.820Z,11.98
2023-10-22T03:02:22.377Z,11.97
2023-10-22T03:04:49.890Z,11.97
2023-10-22T03:07:16.803Z,11.97
2023-10-22T03:09:43.223Z,11.97
2023-10-22T03:12:09.757Z,11.96
2023-10-22T03:14:36.540Z,11.95
2023-10-22T03:17:03.501Z,11.95
2023-10-22T03:19:30.095Z,11.96
2023-10-22T03:21:56.502Z,11.93
2023-10-22T03:24:24.133Z,11.94
2023-10-22T03:26:50.643Z,11.92
2023-10-22T03:29:19.933Z,11.90
2023-10-22T03:31:46.366Z,11.91
2023-10-22T03:34:13.125Z,11.90
2023-10-22T03:36:40.319Z,11.87
2023-10-22T03:39:07.580Z,11.85
2023-10-22T03:41:34.948Z,11.83
2023-10-22T03:44:03.925Z,11.82
2023-10-22T03:46:30.380Z,11.80
2023-10-22T03:48:58.319Z,11.79
2023-10-22T03:51:25.158Z,11.78
2023-10-22T03:53:55.038Z,11.78
2023-10-22T03:56:25.947Z,11.78
2023-10-22T03:58:52.654Z,11.76
2023-10-22T04:01:19.237Z,11.74
2023-10-22T04:03:45.853Z,11.74
2023-10-22T04:06:12.422Z,11.73
2023-10-22T04:08:38.978Z,11.73
2023-10-22T04:11:06.045Z,11.72
2023-10-22T04:13:32.598Z,11.70
2023-10-22T04:15:59.157Z,11.69
2023-10-22T04:18:26.161Z,11.67
2023-10-22T04:20:52.796Z,11.67
2023-10-22T04:23:20.427Z,11.65
2023-10-22T04:25:47.073Z,11.63
2023-10-22T04:28:15.341Z,11.61
2023-10-22T04:30:44.751Z,11.58
2023-10-22T04:33:11.402Z,11.56
2023-10-22T04:35:37.904Z,11.57
2023-10-22T04:38:04.720Z,11.55
2023-10-22T04:40:34.803Z,11.52
2023-10-22T04:43:01.639Z,11.52
2023-10-22T04:45:28.147Z,11.52
2023-10-22T04:47:58.328Z,11.50
2023-10-22T04:50:27.657Z,11.49
2023-10-22T04:52:54.151Z,11.48
2023-10-22T04:55:20.761Z,11.48
2023-10-22T04:57:47.173Z,11.47
2023-10-22T05:00:14.731Z,11.47
2023-10-22T05:02:41.342Z,11.47
2023-10-22T05:05:07.922Z,11.47
2023-10-22T05:07:38.419Z,11.47
2023-10-22T05:10:05.861Z,11.46
2023-10-22T05:12:32.401Z,11.45
2023-10-22T05:14:58.923Z,11.43
2023-10-22T05:17:28.252Z,11.43
2023-10-22T05:19:54.632Z,11.43
2023-10-22T05:22:21.608Z,11.41
2023-10-22T05:24:49.385Z,11.41
2023-10-22T05:27:17.968Z,11.39
2023-10-22T05:29:47.219Z,11.37
2023-10-22T05:32:15.997Z,11.37
2023-10-22T05:34:43.371Z,11.36
2023-10-22T05:37:10.069Z,11.35
2023-10-22T05:39:39.567Z,11.34
2023-10-22T05:42:07.210Z,11.33
2023-10-22T05:44:38.140Z,11.33
2023-10-22T05:47:05.612Z,11.34
2023-10-22T05:49:32.192Z,11.33
2023-10-22T05:51:59.063Z,11.30
2023-10-22T05:54:25.702Z,11.30
2023-10-22T05:56:52.249Z,11.30
2023-10-22T05:59:18.723Z,11.30
2023-10-22T06:01:45.198Z,11.28
2023-10-22T06:04:11.977Z,11.26
2023-10-22T06:06:38.525Z,11.24
2023-10-22T06:09:05.409Z,11.22
2023-10-22T06:11:32.005Z,11.19
2023-10-22T06:13:58.474Z,11.18
2023-10-22T06:16:26.196Z,11.19
2023-10-22T06:18:52.809Z,11.18
2023-10-22T06:21:19.378Z,11.18
2023-10-22T06:23:45.894Z,11.17
2023-10-22T06:26:13.923Z,11.16
2023-10-22T06:28:41.305Z,11.16
2023-10-22T06:31:09.583Z,11.16
2023-10-22T06:33:37.026Z,11.15
2023-10-22T06:36:16.677Z,11.13
2023-10-22T06:38:44.425Z,11.15
2023-10-22T06:41:19.216Z,11.12
2023-10-22T06:43:45.862Z,11.10
2023-10-22T06:46:12.656Z,11.09
2023-10-22T06:48:39.285Z,11.10
2023-10-22T06:51:10.488Z,11.10
2023-10-22T06:53:37.807Z,11.11
2023-10-22T06:56:05.846Z,11.13
2023-10-22T06:58:33.169Z,11.15
2023-10-22T07:01:05.824Z,11.17
2023-10-22T07:03:38.353Z,11.18
2023-10-22T07:06:07.551Z,11.19
2023-10-22T07:08:34.188Z,11.17
2023-10-22T07:11:01.174Z,11.17
2023-10-22T07:13:27.881Z,11.17
2023-10-22T07:15:54.604Z,11.18
2023-10-22T07:18:22.154Z,11.18
2023-10-22T07:20:49.462Z,11.19
2023-10-22T07:23:16.743Z,11.22
2023-10-22T07:25:43.765Z,11.27
2023-10-22T07:28:10.269Z,11.31
2023-10-22T07:30:36.914Z,11.33
2023-10-22T07:33:03.581Z,11.34
2023-10-22T07:35:30.161Z,11.32
2023-10-22T07:37:56.695Z,11.33
2023-10-22T07:40:23.176Z,11.31
2023-10-22T07:42:49.688Z,11.36
2023-10-22T07:45:17.391Z,11.40
2023-10-22T07:47:44.159Z,11.43
2023-10-22T07:50:11.433Z,11.46
2023-10-22T07:52:38.098Z,11.51
2023-10-22T07:55:05.492Z,11.50
2023-10-22T07:57:33.381Z,11.45
2023-10-22T08:00:00.063Z,11.45
2023-10-22T08:02:26.554Z,11.55
2023-10-22T08:04:53.045Z,11.61
2023-10-22T08:07:20.060Z,11.69
2023-10-22T08:09:52.127Z,11.83
2023-10-22T08:12:18.739Z,12.04
2023-10-22T08:14:45.293Z,11.87
2023-10-22T08:17:11.724Z,11.77
2023-10-22T08:19:38.318Z,11.77
2023-10-22T08:22:05.218Z,11.74
2023-10-22T08:24:31.715Z,11.73
2023-10-22T08:27:00.773Z,11.73
2023-10-22T08:29:27.503Z,11.71
2023-10-22T08:31:54.117Z,11.73
2023-10-22T08:34:21.502Z,11.76
2023-10-22T08:36:47.892Z,13.15
2023-10-22T08:39:14.314Z,16.35
2023-10-22T08:41:48.370Z,18.20
2023-10-22T08:44:16.604Z,18.87
2023-10-22T08:46:43.802Z,16.77
2023-10-22T08:49:13.044Z,15.21
2023-10-22T08:51:40.206Z,14.40
2023-10-22T08:54:07.033Z,14.00
2023-10-22T08:56:34.817Z,13.67
2023-10-22T08:59:04.280Z,13.40
2023-10-22T09:01:30.699Z,13.15
2023-10-22T09:03:58.394Z,12.95
2023-10-22T09:06:25.076Z,12.82
2023-10-22T09:08:52.866Z,12.74
2023-10-22T09:11:21.245Z,12.70
2023-10-22T09:13:48.710Z,12.67
2023-10-22T09:16:35.630Z,12.71
2023-10-22T09:19:03.298Z,12.76
2023-10-22T09:21:42.810Z,12.81
2023-10-22T09:24:10.583Z,12.89
2023-10-22T09:26:50.972Z,13.04
2023-10-22T09:29:17.595Z,13.19
2023-10-22T09:31:51.406Z,13.44
2023-10-22T09:34:44.239Z,13.71
2023-10-22T09:37:10.811Z,13.90
2023-10-22T09:39:39.526Z,13.94
2023-10-22T09:44:39.445Z,13.72
2023-10-22T09:47:07.488Z,13.77
2023-10-22T09:49:36.154Z,13.84
2023-10-22T09:52:10.096Z,13.85
2023-10-22T09:54:38.940Z,13.80
2023-10-22T09:57:09.806Z,13.75
2023-10-22T09:59:37.349Z,13.74
2023-10-22T10:02:05.465Z,13.73
2023-10-22T10:04:35.898Z,13.75
2023-10-22T10:07:04.148Z,13.73
2023-10-22T10:09:32.268Z,13.75
2023-10-22T10:12:02.390Z,13.66
2023-10-22T10:14:38.160Z,13.74
2023-10-22T10:17:05.902Z,13.80
2023-10-22T10:19:33.154Z,13.85
2023-10-22T10:21:59.659Z,13.84
2023-10-22T10:24:27.000Z,13.88
2023-10-22T10:27:13.404Z,13.96
2023-10-22T10:29:40.310Z,13.98
2023-10-22T10:32:16.349Z,13.99
2023-10-22T10:34:48.519Z,14.13
2023-10-22T10:37:16.836Z,14.21
2023-10-22T10:39:43.750Z,14.21
2023-10-22T10:42:11.526Z,14.26
2023-10-22T10:45:13.431Z,14.13
2023-10-22T10:47:43.020Z,14.16
2023-10-22T10:50:18.505Z,14.28
2023-10-22T10:52:45.667Z,14.35
2023-10-22T10:55:21.430Z,14.30
2023-10-22T10:57:50.201Z,14.26
2023-10-22T11:00:28.360Z,14.25
2023-10-22T11:03:01.801Z,14.33
2023-10-22T11:05:41.359Z,14.43
2023-10-22T11:08:19.296Z,14.53
2023-10-22T11:10:49.600Z,14.52
2023-10-22T11:13:16.808Z,14.58
2023-10-22T11:15:43.334Z,14.69
2023-10-22T11:18:11.699Z,14.72
2023-10-22T11:20:41.437Z,14.64
2023-10-22T11:23:19.263Z,14.50
2023-10-22T11:25:46.567Z,14.43
2023-10-22T11:28:13.732Z,14.39
2023-10-22T11:30:42.428Z,14.36
2023-10-22T11:33:12.270Z,14.36
2023-10-22T11:35:39.072Z,14.42
2023-10-22T11:38:07.417Z,14.59
2023-10-22T11:40:41.088Z,14.79
2023-10-22T11:43:18.041Z,14.91
2023-10-22T11:45:54.789Z,14.98
2023-10-22T11:48:23.541Z,14.89
2023-10-22T11:51:01.351Z,14.85
2023-10-22T11:53:48.262Z,14.87
2023-10-22T11:56:14.758Z,14.78
2023-10-22T11:58:41.336Z,14.81
2023-10-22T12:01:07.842Z,14.81
2023-10-22T12:03:34.329Z,14.78
2023-10-22T12:06:00.962Z,14.82
2023-10-22T12:08:27.458Z,14.79
2023-10-22T12:10:53.881Z,14.78
2023-10-22T12:13:20.402Z,14.82
2023-10-22T12:15:49.312Z,14.74
2023-10-22T12:18:15.722Z,14.79
2023-10-22T12:20:42.211Z,14.88
2023-10-22T12:23:12.305Z,14.91
2023-10-22T12:25:38.982Z,14.89
2023-10-22T12:28:05.544Z,14.88
2023-10-22T12:30:36.665Z,14.77
2023-10-22T12:33:03.888Z,14.83
2023-10-22T12:35:31.047Z,14.84
2023-10-22T12:37:57.510Z,14.87
2023-10-22T12:40:24.076Z,14.86
2023-10-22T12:42:50.851Z,14.87
2023-10-22T12:45:17.515Z,14.87
2023-10-22T12:47:44.074Z,14.87
2023-10-22T12:50:12.045Z,14.92
2023-10-22T12:52:38.649Z,15.02
2023-10-22T12:55:06.114Z,15.14
2023-10-22T12:57:33.321Z,15.18
2023-10-22T12:59:59.982Z,15.16
2023-10-22T13:02:28.155Z,15.15
2023-10-22T13:04:54.660Z,15.17
2023-10-22T13:07:21.127Z,15.22
2023-10-22T13:09:47.554Z,15.28
2023-10-22T13:12:13.941Z,15.35
2023-10-22T13:14:40.537Z,15.41
2023-10-22T13:17:07.720Z,15.52
2023-10-22T13:19:34.349Z,15.47
2023-10-22T13:22:00.776Z,15.51
2023-10-22T13:24:27.521Z,15.57
2023-10-22T13:26:54.781Z,15.63
2023-10-22T13:29:21.343Z,15.76
2023-10-22T13:31:48.754Z,15.78
2023-10-22T13:34:15.561Z,15.81
2023-10-22T13:36:41.993Z,15.78
2023-10-22T13:39:10.125Z,15.73
2023-10-22T13:41:36.701Z,15.79
2023-10-22T13:44:03.335Z,15.74
2023-10-22T13:46:30.465Z,15.71
2023-10-22T13:48:57.020Z,15.55
2023-10-22T13:51:23.650Z,15.37
2023-10-22T13:53:53.631Z,15.22
2023-10-22T13:56:20.094Z,15.04
2023-10-22T13:58:46.528Z,14.91
2023-10-22T14:01:13.182Z,14.80
2023-10-22T14:03:39.915Z,14.74
2023-10-22T14:06:06.599Z,14.72
2023-10-22T14:08:33.076Z,14.67
2023-10-22T14:10:59.479Z,14.68
2023-10-22T14:13:25.919Z,14.77
2023-10-22T14:16:03.022Z,14.84
2023-10-22T14:18:29.504Z,14.84
2023-10-22T14:20:56.044Z,14.88
2023-10-22T14:23:22.502Z,14.86
2023-10-22T14:25:59.558Z,14.76
2023-10-22T14:28:26.023Z,14.72
2023-10-22T14:30:52.401Z,14.67
2023-10-22T14:33:18.982Z,14.64
2023-10-22T14:35:47.640Z,14.58
2023-10-22T14:38:14.070Z,14.54
2023-10-22T14:40:41.381Z,14.54
2023-10-22T14:43:07.824Z,14.50
2023-10-22T14:45:36.314Z,14.43
2023-10-22T14:48:02.817Z,14.40
2023-10-22T14:50:29.222Z,14.38
2023-10-22T14:52:55.640Z,14.35
2023-10-22T14:55:22.299Z,14.36
2023-10-22T14:57:48.717Z,14.37
2023-10-22T15:00:15.355Z,14.41
2023-10-22T15:02:42.615Z,14.40
2023-10-22T15:05:09.681Z,14.42
2023-10-22T15:07:36.563Z,14.42
2023-10-22T15:10:03.903Z,14.53
2023-10-22T15:12:30.412Z,14.60
2023-10-22T15:14:57.136Z,14.62
2023-10-22T15:17:23.654Z,14.62
2023-10-22T15:19:50.087Z,14.53
2023-10-22T15:22:16.578Z,14.42
2023-10-22T15:24:43.093Z,14.31
2023-10-22T15:27:09.712Z,14.22
2023-10-22T15:29:36.220Z,14.15
2023-10-22T15:32:04.177Z,14.11
2023-10-22T15:34:31.302Z,14.10
2023-10-22T15:36:57.904Z,14.07
2023-10-22T15:39:24.373Z,14.06
2023-10-22T15:41:51.905Z,14.05
2023-10-22T15:44:18.290Z,14.05
2023-10-22T15:46:44.722Z,14.02
2023-10-22T15:49:11.097Z,14.00
2023-10-22T15:51:37.923Z,13.96
2023-10-22T15:54:04.695Z,13.93
2023-10-22T15:56:31.183Z,13.88
2023-10-22T15:58:57.620Z,13.80
2023-10-22T16:01:24.470Z,13.71
2023-10-22T16:03:51.045Z,13.66
2023-10-22T16:06:17.608Z,13.60
2023-10-22T16:08:46.930Z,13.56
2023-10-22T16:11:13.378Z,13.54
2023-10-22T16:13:44.074Z,13.51
2023-10-22T16:16:11.122Z,13.44
2023-10-22T16:18:38.791Z,13.37
2023-10-22T16:21:05.784Z,13.29
2023-10-22T16:23:32.693Z,13.20
2023-10-22T16:25:59.227Z,13.10
2023-10-22T16:28:25.687Z,13.00
2023-10-22T16:30:54.546Z,12.91
2023-10-22T16:33:22.367Z,12.81
2023-10-22T16:35:48.934Z,12.74
2023-10-22T16:38:15.400Z,12.69
2023-10-22T16:40:41.770Z,12.59
2023-10-22T16:43:08.214Z,12.53
2023-10-22T16:45:39.069Z,12.47
2023-10-22T16:48:06.200Z,12.39
2023-10-22T16:50:32.661Z,12.32
2023-10-22T16:52:59.078Z,12.26
2023-10-22T16:55:25.980Z,12.17
2023-10-22T16:57:52.534Z,12.10
2023-10-22T17:00:19.342Z,12.02
2023-10-22T17:02:46.017Z,11.95
2023-10-22T17:05:13.843Z,11.85
2023-10-22T17:07:40.370Z,11.79
2023-10-22T17:10:10.320Z,11.73
2023-10-22T17:12:37.785Z,11.68
2023-10-22T17:15:06.922Z,11.63
2023-10-22T17:17:36.270Z,11.59
2023-10-22T17:20:04.365Z,11.58
2023-10-22T17:22:30.812Z,11.56
2023-10-22T17:24:57.904Z,11.52
2023-10-22T17:27:26.858Z,11.48
2023-10-22T17:29:54.287Z,11.45
2023-10-22T17:32:20.696Z,11.42
2023-10-22T17:34:47.120Z,11.37
2023-10-22T17:37:13.681Z,11.33
2023-10-22T17:39:41.736Z,11.26
2023-10-22T17:42:08.800Z,11.20
2023-10-22T17:44:38.102Z,11.12
2023-10-22T17:47:05.597Z,11.11
2023-10-22T17:49:33.480Z,11.09
2023-10-22T17:51:59.958Z,11.08
2023-10-22T17:54:26.428Z,10.99
2023-10-22T17:56:52.801Z,10.94
2023-10-22T17:59:22.665Z,10.87
2023-10-22T18:01:49.144Z,10.82
2023-10-22T18:04:15.681Z,10.81
2023-10-22T18:06:42.387Z,10.77
2023-10-22T18:09:08.857Z,10.78
2023-10-22T18:11:37.351Z,10.75
2023-10-22T18:14:05.456Z,10.78
2023-10-22T18:16:33.514Z,10.77
2023-10-22T18:19:00.759Z,10.71
2023-10-22T18:21:27.457Z,10.63
2023-10-22T18:23:53.895Z,10.59
2023-10-22T18:26:20.937Z,10.53
2023-10-22T18:28:47.370Z,10.53
2023-10-22T18:31:13.837Z,10.58
2023-10-22T18:33:40.969Z,10.57
2023-10-22T18:36:09.460Z,10.56
2023-10-22T18:38:36.285Z,10.56
2023-10-22T18:41:10.383Z,10.52
2023-10-22T18:43:42.897Z,10.44
2023-10-22T18:46:17.054Z,10.38
2023-10-22T18:48:44.686Z,10.31
2023-10-22T18:51:12.577Z,10.29
2023-10-22T18:53:39.093Z,10.26
2023-10-22T18:56:05.889Z,10.22
2023-10-22T18:58:35.427Z,10.16
2023-10-22T19:01:04.090Z,10.07
2023-10-22T19:03:30.930Z,10.02
2023-10-22T19:05:57.599Z,9.95
2023-10-22T19:08:24.061Z,9.95
2023-10-22T19:10:50.576Z,9.91
2023-10-22T19:13:16.968Z,9.88
2023-10-22T19:15:43.446Z,9.85
2023-10-22T19:18:10.032Z,9.83
2023-10-22T19:20:36.519Z,9.80
2023-10-22T19:23:06.514Z,9.74
2023-10-22T19:25:36.270Z,9.68
2023-10-22T19:28:03.634Z,9.65
2023-10-22T19:30:30.332Z,9.65
2023-10-22T19:32:58.338Z,9.62
2023-10-22T19:35:27.236Z,9.53
2023-10-22T19:37:55.250Z,9.47
2023-10-22T19:40:21.751Z,9.41
2023-10-22T19:42:48.161Z,9.37
2023-10-22T19:45:14.729Z,9.32
2023-10-22T19:47:41.172Z,9.28
2023-10-22T19:50:09.465Z,9.22
2023-10-22T19:52:41.023Z,9.18
2023-10-22T19:55:09.002Z,9.13
2023-10-22T19:57:35.738Z,9.09
2023-10-22T20:00:02.357Z,9.08
2023-10-22T20:02:28.949Z,9.04
2023-10-22T20:04:55.636Z,9.01
2023-10-22T20:07:22.177Z,8.99
2023-10-22T20:09:48.613Z,8.94
2023-10-22T20:12:15.488Z,8.92
2023-10-22T20:14:42.039Z,8.88
2023-10-22T20:17:08.457Z,8.86
2023-10-22T20:19:34.860Z,8.87
2023-10-22T20:22:01.298Z,8.85
2023-10-22T20:24:30.564Z,8.81
2023-10-22T20:26:57.973Z,8.77
2023-10-22T20:29:27.369Z,8.77
2023-10-22T20:31:54.214Z,8.73
2023-10-22T20:34:21.424Z,8.67
2023-10-22T20:36:52.013Z,8.62
2023-10-22T20:39:18.627Z,8.61
2023-10-22T20:41:45.527Z,8.60
2023-10-22T20:44:12.013Z,8.57
2023-10-22T20:46:38.583Z,8.58
2023-10-22T20:49:05.267Z,8.55
2023-10-22T20:51:32.992Z,8.47
2023-10-22T20:53:59.454Z,8.39
2023-10-22T20:56:26.076Z,8.35
2023-10-22T20:58:52.448Z,8.29
2023-10-22T21:01:25.110Z,8.25
2023-10-22T21:03:54.018Z,8.26
2023-10-22T21:06:21.351Z,8.28
2023-10-22T21:08:47.989Z,8.29
2023-10-22T21:11:14.753Z,8.28
2023-10-22T21:13:41.153Z,8.28
2023-10-22T21:16:09.534Z,8.21
2023-10-22T21:18:38.425Z,8.18
2023-10-22T21:21:04.897Z,8.17
2023-10-22T21:23:31.702Z,8.14
2023-10-22T21:25:58.306Z,8.18
2023-10-22T21:28:24.984Z,8.17
2023-10-22T21:30:53.015Z,8.14
2023-10-22T21:33:24.428Z,8.13
2023-10-22T21:36:11.957Z,8.14
2023-10-22T21:38:38.940Z,8.08
2023-10-22T21:41:06.628Z,7.99
2023-10-22T21:43:33.057Z,7.93
2023-10-22T21:46:09.490Z,7.84
2023-10-22T21:48:37.103Z,7.81
2023-10-22T21:51:03.904Z,7.80
2023-10-22T21:53:30.342Z,7.78
2023-10-22T21:55:56.906Z,7.80
2023-10-22T21:58:23.500Z,7.80
2023-10-22T22:00:50.967Z,7.76
2023-10-22T22:03:17.563Z,7.74
2023-10-22T22:05:44.166Z,7.72
2023-10-22T22:08:10.677Z,7.65
2023-10-22T22:10:37.840Z,7.66
2023-10-22T22:13:04.314Z,7.69
2023-10-22T22:15:30.820Z,7.71
2023-10-22T22:17:57.352Z,7.71
2023-10-22T22:20:24.988Z,7.70
2023-10-22T22:22:51.396Z,7.66
2023-10-22T22:25:21.336Z,7.65
2023-10-22T22:27:50.102Z,7.62
2023-10-22T22:30:16.711Z,7.56
2023-10-22T22:32:43.225Z,7.55
2023-10-22T22:35:09.760Z,7.53
2023-10-22T22:37:36.770Z,7.47
2023-10-22T22:40:04.395Z,7.39
2023-10-22T22:42:30.815Z,7.37
2023-10-22T22:44:57.206Z,7.37
2023-10-22T22:47:25.163Z,7.37
2023-10-22T22:49:51.698Z,7.33
2023-10-22T22:52:18.207Z,7.34
2023-10-22T22:54:44.697Z,7.32
2023-10-22T22:57:11.185Z,7.28
2023-10-22T22:59:37.681Z,7.27
2023-10-22T23:02:04.314Z,7.26
2023-10-22T23:04:31.029Z,7.24
2023-10-22T23:06:57.503Z,7.26
2023-10-22T23:09:40.179Z,7.29
2023-10-22T23:12:06.832Z,7.30
2023-10-22T23:14:33.224Z,7.27
2023-10-22T23:16:59.616Z,7.26
2023-10-22T23:19:26.770Z,7.29
2023-10-22T23:21:53.356Z,7.30
2023-10-22T23:24:19.925Z,7.27
2023-10-22T23:26:46.347Z,7.33
2023-10-22T23:29:12.754Z,7.36
2023-10-22T23:31:39.246Z,7.39
2023-10-22T23:34:05.904Z,7.46
2023-10-22T23:36:32.466Z,7.46
2023-10-22T23:38:58.935Z,7.48
2023-10-22T23:41:25.342Z,7.51
2023-10-22T23:43:51.757Z,7.55
2023-10-22T23:46:20.373Z,7.59
2023-10-22T23:48:46.914Z,7.62
2023-10-22T23:51:13.452Z,7.64
2023-10-22T23:53:39.853Z,7.68
2023-10-22T23:56:06.277Z,7.71
2023-10-22T23:58:32.711Z,7.72
